createdAt,value
2022-10-26T00:03:18.476Z,2.75
2022-10-26T00:07:20.088Z,2.88
2022-10-26T00:11:21.893Z,3.53
2022-10-26T00:15:23.516Z,2.45
2022-10-26T00:19:25.295Z,3.33
2022-10-26T00:23:27.970Z,2.90
2022-10-26T00:27:29.616Z,2.70
2022-10-26T00:31:31.370Z,3.30
2022-10-26T00:35:45.550Z,3.20
2022-10-26T00:39:47.943Z,4.05
2022-10-26T00:43:52.010Z,3.22
2022-10-26T00:47:58.815Z,3.25
2022-10-26T00:52:00.495Z,3.15
2022-10-26T00:56:02.816Z,2.15
2022-10-26T01:00:07.103Z,3.17
2022-10-26T01:04:09.289Z,3.20
2022-10-26T01:08:12.099Z,2.42
2022-10-26T01:12:13.772Z,3.33
2022-10-26T01:16:43.363Z,2.15
2022-10-26T01:21:24.317Z,2.67
2022-10-26T01:25:33.732Z,2.38
2022-10-26T01:29:50.160Z,2.17
2022-10-26T01:34:03.602Z,3.80
2022-10-26T01:38:21.920Z,2.15
2022-10-26T01:42:25.742Z,3.17
2022-10-26T01:46:30.719Z,2.63
2022-10-26T01:50:32.808Z,2.13
2022-10-26T01:58:58.453Z,4.00
2022-10-26T02:03:15.225Z,3.25
2022-10-26T02:07:40.182Z,2.03
2022-10-26T02:11:46.536Z,3.55
2022-10-26T02:15:55.023Z,3.58
2022-10-26T02:20:08.945Z,1.92
2022-10-26T02:24:13.979Z,2.13
2022-10-26T02:28:19.877Z,3.05
2022-10-26T02:32:25.795Z,2.83
2022-10-26T02:36:31.954Z,2.22
2022-10-26T02:40:35.687Z,1.80
2022-10-26T02:44:46.584Z,3.17
2022-10-26T02:48:48.574Z,2.45
2022-10-26T02:53:12.972Z,1.70
2022-10-26T02:57:24.911Z,2.28
2022-10-26T03:01:28.628Z,1.65
2022-10-26T03:05:36.777Z,1.58
2022-10-26T03:09:38.455Z,2.88
2022-10-26T03:13:40.175Z,1.58
2022-10-26T03:17:42.114Z,3.13
2022-10-26T03:21:43.846Z,2.38
2022-10-26T03:25:45.414Z,1.77
2022-10-26T03:29:47.055Z,1.65
2022-10-26T03:33:48.638Z,1.67
2022-10-26T03:37:50.731Z,2.85
2022-10-26T03:45:59.030Z,3.13
2022-10-26T03:50:00.772Z,2.35
2022-10-26T03:54:02.430Z,1.83
2022-10-26T03:58:04.086Z,3.60
2022-10-26T04:02:05.716Z,1.70
2022-10-26T04:06:07.566Z,2.20
2022-10-26T04:10:09.844Z,1.52
2022-10-26T04:14:11.447Z,1.58
2022-10-26T04:18:13.215Z,1.38
2022-10-26T04:22:14.873Z,1.25
2022-10-26T04:26:16.506Z,1.85
2022-10-26T04:30:18.375Z,1.60
2022-10-26T04:34:19.949Z,1.73
2022-10-26T04:38:21.547Z,2.17
2022-10-26T04:42:23.250Z,1.23
2022-10-26T04:50:41.074Z,1.48
2022-10-26T04:54:42.646Z,2.58
2022-10-26T04:58:44.634Z,1.50
2022-10-26T05:02:46.249Z,1.83
2022-10-26T05:06:47.854Z,1.67
2022-10-26T05:10:50.276Z,1.27
2022-10-26T05:14:51.869Z,1.77
2022-10-26T05:18:53.474Z,1.85
2022-10-26T05:22:55.804Z,2.92
2022-10-26T05:26:57.553Z,1.42
2022-10-26T05:30:59.291Z,1.50
2022-10-26T05:35:01.004Z,1.58
2022-10-26T05:39:04.229Z,2.67
2022-10-26T05:43:05.970Z,2.55
2022-10-26T05:47:07.561Z,3.58
2022-10-26T05:51:10.667Z,2.30
2022-10-26T05:55:15.115Z,4.65
2022-10-26T05:59:17.165Z,2.08
2022-10-26T06:03:24.789Z,5.53
2022-10-26T06:07:26.643Z,2.65
2022-10-26T06:11:28.549Z,3.25
2022-10-26T06:15:32.557Z,3.00
2022-10-26T06:20:31.867Z,3.15
2022-10-26T06:24:45.284Z,2.90
2022-10-26T06:28:53.178Z,2.42
2022-10-26T06:33:05.840Z,4.85
2022-10-26T06:37:13.713Z,4.05
2022-10-26T06:41:19.093Z,2.13
2022-10-26T06:45:21.356Z,3.43
2022-10-26T06:53:41.867Z,3.85
2022-10-26T06:57:44.621Z,2.70
2022-10-26T07:01:46.435Z,4.22
2022-10-26T07:05:48.527Z,4.95
2022-10-26T07:09:50.184Z,6.72
2022-10-26T07:13:51.828Z,7.63
2022-10-26T07:17:53.556Z,3.13
2022-10-26T07:22:01.836Z,4.35
2022-10-26T07:26:03.525Z,3.65
2022-10-26T07:30:05.946Z,3.97
2022-10-26T07:34:07.535Z,3.38
2022-10-26T07:38:09.516Z,8.18
2022-10-26T07:42:11.079Z,4.72
2022-10-26T07:46:13.224Z,2.28
2022-10-26T07:50:14.842Z,2.53
2022-10-26T07:54:16.503Z,2.67
2022-10-26T07:58:18.261Z,5.13
2022-10-26T08:02:19.849Z,5.53
2022-10-26T08:06:22.622Z,3.72
2022-10-26T08:10:24.213Z,5.80
2022-10-26T08:14:25.775Z,7.55
2022-10-26T08:18:27.960Z,9.57
2022-10-26T08:22:30.776Z,4.68
2022-10-26T08:26:32.360Z,9.45
2022-10-26T08:34:36.839Z,6.05
2022-10-26T08:38:38.427Z,9.60
2022-10-26T08:42:46.501Z,5.13
2022-10-26T08:46:53.435Z,6.07
2022-10-26T08:50:57.595Z,7.80
2022-10-26T08:55:02.408Z,6.55
2022-10-26T08:59:35.820Z,9.45
2022-10-26T09:03:37.424Z,5.00
2022-10-26T09:07:59.002Z,8.48
2022-10-26T09:12:37.319Z,9.50
2022-10-26T09:16:54.682Z,5.93
2022-10-26T09:21:16.115Z,8.70
2022-10-26T09:25:23.402Z,7.10
2022-10-26T09:29:31.400Z,10.55
2022-10-26T09:33:39.943Z,6.63
2022-10-26T09:37:47.008Z,5.78
2022-10-26T09:42:22.376Z,5.78
2022-10-26T09:46:48.086Z,5.45
2022-10-26T09:50:51.306Z,4.97
2022-10-26T09:54:52.932Z,4.18
2022-10-26T09:59:05.956Z,7.38
2022-10-26T10:03:24.596Z,6.25
2022-10-26T10:07:26.428Z,6.85
2022-10-26T10:11:38.922Z,7.20
2022-10-26T10:15:40.540Z,4.78
2022-10-26T10:19:42.753Z,9.60
2022-10-26T10:23:53.142Z,6.90
2022-10-26T10:27:54.971Z,4.55
2022-10-26T10:31:59.350Z,7.22
2022-10-26T10:36:01.988Z,4.82
2022-10-26T10:40:25.359Z,4.07
2022-10-26T10:44:32.677Z,4.25
2022-10-26T10:48:37.148Z,5.05
2022-10-26T10:52:41.751Z,5.18
2022-10-26T10:56:56.086Z,4.88
2022-10-26T11:00:57.863Z,4.25
2022-10-26T11:05:24.779Z,4.03
2022-10-26T11:09:32.769Z,4.15
2022-10-26T11:13:48.596Z,3.70
2022-10-26T11:17:50.288Z,4.18
2022-10-26T11:21:55.958Z,2.67
2022-10-26T11:26:05.120Z,2.95
2022-10-26T11:30:20.441Z,4.80
2022-10-26T11:34:29.490Z,3.42
2022-10-26T11:38:46.547Z,4.07
2022-10-26T11:43:11.554Z,2.78
2022-10-26T11:47:34.775Z,3.47
2022-10-26T11:51:39.748Z,4.95
2022-10-26T11:55:42.152Z,5.15
2022-10-26T11:59:49.448Z,2.88
2022-10-26T12:03:54.456Z,4.90
2022-10-26T12:08:00.567Z,3.83
2022-10-26T12:16:52.474Z,4.15
2022-10-26T12:21:04.601Z,3.83
2022-10-26T12:25:13.946Z,4.15
2022-10-26T12:29:36.623Z,3.38
2022-10-26T12:33:50.487Z,4.88
2022-10-26T12:38:10.091Z,3.42
2022-10-26T12:42:29.725Z,3.08
2022-10-26T12:46:31.271Z,4.07
2022-10-26T12:50:32.993Z,2.53
2022-10-26T12:54:49.784Z,4.18
2022-10-26T12:59:07.325Z,5.10
2022-10-26T13:03:34.929Z,7.03
2022-10-26T13:07:38.951Z,5.10
2022-10-26T13:11:50.075Z,6.03
2022-10-26T13:15:56.291Z,4.78
2022-10-26T13:20:01.073Z,4.93
2022-10-26T13:24:08.107Z,5.43
2022-10-26T13:28:37.396Z,5.78
2022-10-26T13:32:48.910Z,6.45
2022-10-26T13:37:05.742Z,6.18
2022-10-26T13:41:25.747Z,4.07
2022-10-26T13:45:34.170Z,7.05
2022-10-26T13:49:41.397Z,4.53
2022-10-26T13:53:55.241Z,8.15
2022-10-26T13:58:22.854Z,9.05
2022-10-26T14:02:27.048Z,5.43
2022-10-26T14:06:35.898Z,7.07
2022-10-26T14:10:41.530Z,7.03
2022-10-26T14:14:43.631Z,9.57
2022-10-26T14:18:46.407Z,5.32
2022-10-26T14:22:48.107Z,6.28
2022-10-26T14:26:50.073Z,7.72
2022-10-26T14:30:51.807Z,6.32
2022-10-26T14:34:54.258Z,5.20
2022-10-26T14:39:01.965Z,7.22
2022-10-26T14:43:05.439Z,5.95
2022-10-26T14:47:33.930Z,6.45
2022-10-26T14:51:36.253Z,5.63
2022-10-26T14:55:49.015Z,5.03
2022-10-26T15:00:01.501Z,6.07
2022-10-26T15:04:06.435Z,6.95
2022-10-26T15:08:56.895Z,6.45
2022-10-26T15:13:27.913Z,4.65
2022-10-26T15:17:37.923Z,3.83
2022-10-26T15:21:46.053Z,7.25
2022-10-26T15:25:55.016Z,4.35
2022-10-26T15:30:19.942Z,7.40
2022-10-26T15:34:23.528Z,3.95
2022-10-26T15:38:28.601Z,5.03
2022-10-26T15:42:31.678Z,4.60
2022-10-26T15:46:35.450Z,4.70
2022-10-26T15:50:39.093Z,4.10
2022-10-26T15:54:42.907Z,4.38
2022-10-26T15:58:45.040Z,3.85
2022-10-26T16:02:47.533Z,4.10
2022-10-26T16:06:49.274Z,5.10
2022-10-26T16:10:51.450Z,5.53
2022-10-26T16:15:05.116Z,4.22
2022-10-26T16:19:30.384Z,4.38
2022-10-26T16:23:31.812Z,3.25
2022-10-26T16:27:33.483Z,3.25
2022-10-26T16:31:35.100Z,4.28
2022-10-26T16:35:37.374Z,3.72
2022-10-26T16:39:39.093Z,2.55
2022-10-26T16:43:43.099Z,5.22
2022-10-26T16:47:45.048Z,3.10
2022-10-26T16:51:46.722Z,3.50
2022-10-26T16:55:48.589Z,3.28
2022-10-26T16:59:50.287Z,3.72
2022-10-26T17:03:53.240Z,3.70
2022-10-26T17:07:55.287Z,4.20
2022-10-26T17:12:01.637Z,3.80
2022-10-26T17:16:08.683Z,6.20
2022-10-26T17:20:11.048Z,6.50
2022-10-26T17:24:13.580Z,8.85
2022-10-26T17:28:15.250Z,8.57
2022-10-26T17:32:16.870Z,8.05
2022-10-26T17:36:20.866Z,6.65
2022-10-26T17:40:22.434Z,6.70
2022-10-26T17:44:24.099Z,6.45
2022-10-26T17:48:26.310Z,6.18
2022-10-26T17:52:27.953Z,6.47
2022-10-26T17:56:32.129Z,3.75
2022-10-26T18:00:33.864Z,7.55
2022-10-26T18:04:35.573Z,5.75
2022-10-26T18:08:38.749Z,9.30
2022-10-26T18:12:40.325Z,6.35
2022-10-26T18:16:41.907Z,8.05
2022-10-26T18:20:43.471Z,8.40
2022-10-26T18:24:45.437Z,9.25
2022-10-26T18:28:47.436Z,11.40
2022-10-26T18:32:50.330Z,11.40
2022-10-26T18:36:53.616Z,11.18
2022-10-26T18:40:55.257Z,9.48
2022-10-26T18:45:00.845Z,9.98
2022-10-26T18:49:05.156Z,14.02
2022-10-26T18:53:12.544Z,10.30
2022-10-26T18:57:14.198Z,12.55
2022-10-26T19:01:36.178Z,9.50
2022-10-26T19:05:41.616Z,11.98
2022-10-26T19:09:43.279Z,12.07
2022-10-26T19:13:46.451Z,13.35
2022-10-26T19:17:48.050Z,13.10
2022-10-26T19:21:50.217Z,19.60
2022-10-26T19:25:55.412Z,18.58
2022-10-26T19:29:57.071Z,14.90
2022-10-26T19:34:02.693Z,16.98
2022-10-26T19:38:04.329Z,15.43
2022-10-26T19:42:06.010Z,17.35
2022-10-26T19:46:10.610Z,11.35
2022-10-26T19:50:13.451Z,11.75
2022-10-26T19:54:15.132Z,15.57
2022-10-26T19:58:16.924Z,13.52
2022-10-26T20:02:18.534Z,21.13
2022-10-26T20:06:20.351Z,15.15
2022-10-26T20:10:22.593Z,15.20
2022-10-26T20:14:24.159Z,14.35
2022-10-26T20:18:26.016Z,14.43
2022-10-26T20:22:27.598Z,12.88
2022-10-26T20:26:29.293Z,14.60
2022-10-26T20:30:32.172Z,14.63
2022-10-26T20:34:33.808Z,14.75
2022-10-26T20:38:35.795Z,15.48
2022-10-26T20:42:37.784Z,14.32
2022-10-26T20:46:39.705Z,16.85
2022-10-26T20:50:46.480Z,14.32
2022-10-26T20:54:59.827Z,14.68
2022-10-26T20:59:03.047Z,15.85
2022-10-26T21:03:04.611Z,16.85
2022-10-26T21:07:06.427Z,12.43
2022-10-26T21:11:08.147Z,10.10
2022-10-26T21:15:09.875Z,17.15
2022-10-26T21:19:11.669Z,12.45
2022-10-26T21:23:13.303Z,14.55
2022-10-26T21:27:14.889Z,14.32
2022-10-26T21:31:18.495Z,11.98
2022-10-26T21:35:20.972Z,12.80
2022-10-26T21:39:22.547Z,14.40
2022-10-26T21:43:24.109Z,19.92
2022-10-26T21:47:25.688Z,14.23
2022-10-26T21:51:27.273Z,11.50
2022-10-26T21:55:28.885Z,14.10
2022-10-26T21:59:30.477Z,13.30
2022-10-26T22:03:32.338Z,12.20
2022-10-26T22:07:34.038Z,14.45
2022-10-26T22:11:35.689Z,12.02
2022-10-26T22:15:37.259Z,10.95
2022-10-26T22:19:38.875Z,12.63
2022-10-26T22:23:42.171Z,12.43
2022-10-26T22:27:43.783Z,12.85
2022-10-26T22:31:45.489Z,13.40
2022-10-26T22:35:47.195Z,13.02
2022-10-26T22:39:48.781Z,12.07
2022-10-26T22:43:53.301Z,10.77
2022-10-26T22:47:54.975Z,11.82
2022-10-26T22:51:56.684Z,13.38
2022-10-26T22:55:58.443Z,11.35
2022-10-26T23:00:00.086Z,11.75
2022-10-26T23:04:01.701Z,11.95
2022-10-26T23:08:03.496Z,12.63
2022-10-26T23:12:05.269Z,11.40
2022-10-26T23:16:12.823Z,10.80
2022-10-26T23:20:14.593Z,9.85
2022-10-26T23:24:16.171Z,10.18
2022-10-26T23:28:17.857Z,11.60
2022-10-26T23:32:19.497Z,11.65
2022-10-26T23:36:21.983Z,8.50
2022-10-26T23:40:23.583Z,10.93
2022-10-26T23:44:25.248Z,9.88
2022-10-26T23:48:27.169Z,12.57
2022-10-26T23:52:28.755Z,11.93
2022-10-26T23:56:30.567Z,8.02
